Time;durP1;ratioP1;P1;durP2;ratioP2;P2;SDS_P1;SDS_P2;PMS_P1;PMS_P2;Temp;Humidity;BMP_temperature;BMP_pressure;BME280_temperature;BME280_humidity;BME280_pressure;Samples;Min_cycle;Max_cycle;Signal;HPM_P1;HPM_P2
2023/02/02 00:01:46;;;;;;;3.28;1.83;;;5.50;1.00;;;;;;5002808;28;20243;-81
2023/02/02 00:04:17;;;;;;;3.47;2.00;;;5.40;1.00;;;;;;5005079;28;20218;-81
2023/02/02 00:06:46;;;;;;;4.90;1.60;;;5.40;1.00;;;;;;5006127;28;20330;-81
2023/02/02 00:09:16;;;;;;;2.77;1.80;;;5.50;1.00;;;;;;5003977;28;20209;-80
2023/02/02 00:11:46;;;;;;;3.60;2.03;;;5.50;1.00;;;;;;5001674;28;20554;-81
2023/02/02 00:14:14;;;;;;;3.10;1.73;;;5.50;1.00;;;;;;5006703;28;20473;-81
2023/02/02 00:16:46;;;;;;;4.55;3.85;;;5.50;1.00;;;;;;5007117;28;20194;-82
2023/02/02 00:19:17;;;;;;;1.97;1.70;;;5.50;1.00;;;;;;5000775;28;20199;-81
2023/02/02 00:21:45;;;;;;;5.13;2.27;;;5.40;1.00;;;;;;5004153;28;20461;-81
2023/02/02 00:24:17;;;;;;;4.93;2.10;;;5.40;1.00;;;;;;5001959;28;20533;-80
2023/02/02 00:26:48;;;;;;;5.43;2.23;;;5.50;1.00;;;;;;5005787;28;21009;-82
2023/02/02 00:29:17;;;;;;;5.78;2.67;;;5.60;1.00;;;;;;4998804;28;21244;-81
2023/02/02 00:31:48;;;;;;;3.80;1.90;;;5.60;99.90;;;;;;5001514;28;21012;-81
2023/02/02 00:34:17;;;;;;;5.07;1.77;;;5.50;1.00;;;;;;5002006;28;20210;-82
2023/02/02 00:36:46;;;;;;;3.70;1.65;;;5.50;1.00;;;;;;5001515;28;20200;-80
2023/02/02 00:39:17;;;;;;;3.50;1.95;;;5.60;1.00;;;;;;4993202;28;20222;-80
2023/02/02 00:41:46;;;;;;;5.10;1.60;;;5.60;1.00;;;;;;4999157;28;20214;-79
2023/02/02 00:47:02;;;;;;;7.05;2.40;;;5.70;1.00;;;;;;4999185;28;20229;-80
2023/02/02 00:49:30;;;;;;;6.47;2.00;;;5.80;99.90;;;;;;5000386;28;20202;-80
2023/02/02 00:51:59;;;;;;;3.92;2.15;;;5.70;99.90;;;;;;5001225;28;20213;-80
2023/02/02 00:54:27;;;;;;;3.70;1.50;;;5.80;99.90;;;;;;4996536;28;20261;-80
2023/02/02 00:56:56;;;;;;;8.17;2.70;;;5.70;99.90;;;;;;5000125;28;20480;-80
2023/02/02 00:59:24;;;;;;;5.90;1.93;;;5.60;99.90;;;;;;5003304;28;20460;-80
2023/02/02 01:01:53;;;;;;;3.47;1.85;;;5.70;99.90;;;;;;5005467;28;20468;-80
2023/02/02 01:04:23;;;;;;;3.50;1.40;;;5.60;99.90;;;;;;5007978;28;21895;-80
2023/02/02 01:06:51;;;;;;;3.80;1.95;;;5.70;99.90;;;;;;5006549;28;20491;-82
2023/02/02 01:09:19;;;;;;;2.33;1.63;;;5.60;99.90;;;;;;5003724;28;20208;-80
2023/02/02 01:11:47;;;;;;;3.05;1.95;;;5.60;1.00;;;;;;5004476;28;20193;-82
2023/02/02 01:14:16;;;;;;;2.40;1.50;;;5.60;99.90;;;;;;5004790;28;20221;-81
2023/02/02 01:16:44;;;;;;;3.38;1.98;;;5.70;99.90;;;;;;5005887;28;20456;-80
2023/02/02 01:19:13;;;;;;;4.63;1.50;;;5.80;99.90;;;;;;5004432;28;20203;-81
2023/02/02 01:21:43;;;;;;;1.42;1.33;;;5.70;99.90;;;;;;5001729;28;20209;-80
2023/02/02 01:24:11;;;;;;;3.23;1.50;;;5.70;1.00;;;;;;5004944;28;20207;-80
2023/02/02 01:26:40;;;;;;;1.77;1.67;;;5.70;1.00;;;;;;5007518;28;20839;-80
2023/02/02 01:29:08;;;;;;;3.88;1.60;;;5.70;99.90;;;;;;5006872;28;20207;-81
2023/02/02 01:31:36;;;;;;;2.58;1.33;;;5.70;1.00;;;;;;5004496;28;20211;-80
2023/02/02 01:34:04;;;;;;;2.35;1.80;;;5.70;19.40;;;;;;5002886;28;20743;-82
2023/02/02 01:36:32;;;;;;;1.98;1.50;;;5.60;99.90;;;;;;5008192;28;20564;-81
2023/02/02 01:39:02;;;;;;;2.30;1.40;;;5.70;1.00;;;;;;5000123;28;20215;-81
2023/02/02 01:41:30;;;;;;;6.35;1.50;;;5.60;1.00;;;;;;5006071;28;20515;-81
2023/02/02 01:44:00;;;;;;;3.60;1.58;;;5.70;99.90;;;;;;5003835;28;20239;-80
2023/02/02 01:46:29;;;;;;;2.43;1.93;;;5.70;99.90;;;;;;5006498;28;20250;-79
2023/02/02 01:49:01;;;;;;;2.47;1.50;;;5.70;1.00;;;;;;5003290;28;20461;-80
2023/02/02 01:51:36;;;;;;;3.75;1.63;;;5.80;99.90;;;;;;5004034;28;20202;-81
2023/02/02 01:54:08;;;;;;;1.77;1.67;;;5.70;23.20;;;;;;5004145;28;20218;-81
2023/02/02 01:56:41;;;;;;;1.40;1.30;;;5.60;99.90;;;;;;5027200;28;20991;-79
2023/02/02 01:59:11;;;;;;;2.95;1.50;;;5.70;26.60;;;;;;4999262;28;20200;-84
2023/02/02 02:01:39;;;;;;;4.63;1.60;;;5.60;1.00;;;;;;5011228;28;20212;-80
2023/02/02 02:04:07;;;;;;;2.55;1.83;;;5.70;99.90;;;;;;5006414;28;20704;-82
2023/02/02 02:06:35;;;;;;;4.25;2.40;;;5.60;99.90;;;;;;5010394;28;20218;-80
2023/02/02 02:09:06;;;;;;;1.93;1.60;;;5.60;99.90;;;;;;5009695;28;20393;-81
2023/02/02 02:11:37;;;;;;;2.55;1.95;;;5.70;10.80;;;;;;5011196;28;20549;-80
2023/02/02 02:17:10;;;;;;;4.85;2.00;;;5.70;1.00;;;;;;5013635;28;20295;-81
2023/02/02 02:26:54;;;;;;;4.13;1.75;;;5.70;1.00;;;;;;5010581;28;20485;-80
2023/02/02 02:30:02;;;;;;;2.35;1.40;;;5.60;1.00;;;;;;5011215;28;20256;-79
2023/02/02 02:32:41;;;;;;;4.37;2.47;;;5.60;1.00;;;;;;5012053;28;20202;-79
2023/02/02 02:35:17;;;;;;;3.83;1.80;;;5.50;1.00;;;;;;5012238;28;20454;-80
2023/02/02 02:37:49;;;;;;;2.03;1.90;;;5.60;99.90;;;;;;5007236;28;20230;-80
2023/02/02 02:40:24;;;;;;;1.98;1.45;;;5.50;99.90;;;;;;5010193;28;20465;-81
2023/02/02 02:42:56;;;;;;;1.70;1.60;;;5.50;99.90;;;;;;5014918;28;20206;-79
2023/02/02 02:45:26;;;;;;;2.38;1.50;;;5.50;1.00;;;;;;5014357;28;20835;-82
2023/02/02 02:47:56;;;;;;;1.47;1.37;;;5.50;99.90;;;;;;5009326;28;20847;-82
2023/02/02 02:50:24;;;;;;;3.15;1.60;;;5.60;1.00;;;;;;5005820;28;20812;-82
2023/02/02 02:52:59;;;;;;;1.80;1.50;;;5.60;99.90;;;;;;5007153;28;20705;-81
2023/02/02 02:55:36;;;;;;;2.57;1.50;;;5.70;1.00;;;;;;5015452;28;20234;-80
2023/02/02 02:58:10;;;;;;;3.33;2.13;;;5.70;99.90;;;;;;5009310;28;20505;-82
2023/02/02 03:01:01;;;;;;;3.05;1.60;;;5.70;1.00;;;;;;5008594;28;20507;-82
2023/02/02 03:03:45;;;;;;;5.47;1.40;;;5.70;99.90;;;;;;5001474;28;20208;-81
2023/02/02 03:06:21;;;;;;;3.00;1.50;;;5.60;99.90;;;;;;5008620;28;20579;-81
2023/02/02 03:08:55;;;;;;;1.63;1.50;;;5.70;99.90;;;;;;5008584;28;20490;-81
2023/02/02 03:11:23;;;;;;;1.60;1.50;;;5.70;1.00;;;;;;5008806;28;20977;-82
2023/02/02 03:13:52;;;;;;;1.70;1.60;;;5.70;99.90;;;;;;5007768;28;20191;-82
2023/02/02 03:16:20;;;;;;;2.07;1.40;;;5.80;1.00;;;;;;5005805;28;20466;-82
2023/02/02 03:18:50;;;;;;;2.63;1.40;;;5.80;1.00;;;;;;5004247;28;20637;-82
2023/02/02 03:21:18;;;;;;;1.87;1.77;;;5.70;99.90;;;;;;5007480;28;20450;-82
2023/02/02 03:23:46;;;;;;;2.97;1.57;;;5.70;99.90;;;;;;5001803;28;20493;-81
2023/02/02 03:26:15;;;;;;;2.67;1.40;;;5.70;99.90;;;;;;5007107;28;20449;-80
2023/02/02 03:28:43;;;;;;;1.40;1.40;;;5.70;99.90;;;;;;5009600;28;20557;-80
2023/02/02 03:31:11;;;;;;;1.27;1.27;;;5.80;99.90;;;;;;5004275;28;20457;-82
2023/02/02 03:33:40;;;;;;;2.13;1.50;;;5.80;1.00;;;;;;5008916;28;20456;-81
2023/02/02 03:36:10;;;;;;;2.83;1.47;;;5.80;1.00;;;;;;5004906;28;20460;-82
2023/02/02 03:38:38;;;;;;;1.40;1.30;;;5.80;99.90;;;;;;5003483;28;20864;-82
2023/02/02 03:41:06;;;;;;;2.47;1.30;;;5.70;99.90;;;;;;5009369;28;20461;-81
2023/02/02 03:43:34;;;;;;;2.70;2.23;;;5.70;1.00;;;;;;5013623;28;20454;-82
2023/02/02 03:46:04;;;;;;;2.10;1.40;;;5.70;1.00;;;;;;5018075;28;20897;-81
2023/02/02 03:48:36;;;;;;;1.80;1.40;;;5.70;40.80;;;;;;5013034;28;20545;-82
2023/02/02 03:51:06;;;;;;;3.23;1.40;;;5.80;1.00;;;;;;5006089;28;20460;-81
2023/02/02 03:53:36;;;;;;;1.40;1.33;;;5.80;1.00;;;;;;5006647;28;20467;-81
2023/02/02 03:56:05;;;;;;;1.50;1.40;;;5.60;99.90;;;;;;5006484;28;20519;-81
2023/02/02 03:58:33;;;;;;;1.58;1.27;;;5.60;99.90;;;;;;5007029;28;20549;-81
2023/02/02 04:01:04;;;;;;;1.37;1.30;;;5.70;83.70;;;;;;5006160;28;20281;-80
2023/02/02 04:03:32;;;;;;;1.20;1.20;;;5.60;99.90;;;;;;5006025;28;20453;-81
2023/02/02 04:06:00;;;;;;;1.80;1.63;;;5.70;1.00;;;;;;5007880;28;20281;-79
2023/02/02 04:08:30;;;;;;;4.23;1.40;;;5.70;99.90;;;;;;5006004;28;20473;-82
2023/02/02 04:10:59;;;;;;;1.40;1.30;;;5.60;1.00;;;;;;5004768;28;20577;-81
2023/02/02 04:13:28;;;;;;;1.85;1.40;;;5.70;99.90;;;;;;5001243;28;20457;-83
2023/02/02 04:16:00;;;;;;;2.17;1.38;;;5.70;99.90;;;;;;5008515;28;21113;-81
2023/02/02 04:18:28;;;;;;;1.77;1.20;;;5.70;99.90;;;;;;5012312;28;20272;-82
2023/02/02 04:20:58;;;;;;;2.33;1.30;;;5.70;99.90;;;;;;5009009;28;20472;-82
2023/02/02 04:23:27;;;;;;;1.20;1.10;;;5.70;1.00;;;;;;5008123;28;20209;-83
2023/02/02 04:25:55;;;;;;;1.70;1.20;;;5.80;99.90;;;;;;5008210;28;20658;-81
2023/02/02 04:28:25;;;;;;;1.77;1.30;;;5.70;99.90;;;;;;5010264;28;20214;-81
2023/02/02 04:30:55;;;;;;;1.85;1.30;;;5.70;99.90;;;;;;5006610;28;20197;-79
2023/02/02 04:33:25;;;;;;;1.50;1.40;;;5.80;99.90;;;;;;5002455;28;20205;-79
2023/02/02 04:35:53;;;;;;;2.50;1.20;;;5.80;99.90;;;;;;5000420;28;20517;-80
2023/02/02 04:38:21;;;;;;;2.58;1.70;;;5.80;1.00;;;;;;5004521;28;20486;-81
2023/02/02 04:40:49;;;;;;;1.58;1.48;;;5.90;60.40;;;;;;5005537;28;20674;-81
2023/02/02 04:43:17;;;;;;;3.43;1.20;;;5.90;1.00;;;;;;5002015;28;20231;-80
2023/02/02 04:45:48;;;;;;;1.60;1.30;;;5.90;99.90;;;;;;5005409;28;20454;-80
2023/02/02 04:48:17;;;;;;;2.20;1.47;;;6.00;1.00;;;;;;4999658;28;20823;-80
2023/02/02 04:50:45;;;;;;;1.20;1.20;;;6.00;99.90;;;;;;5000844;28;20465;-78
2023/02/02 04:53:13;;;;;;;1.50;1.40;;;5.90;99.90;;;;;;4998222;28;20461;-78
2023/02/02 04:55:42;;;;;;;1.92;1.20;;;5.80;1.00;;;;;;4999061;28;20201;-83
2023/02/02 04:58:10;;;;;;;2.33;1.30;;;5.80;1.00;;;;;;5007774;28;20232;-82
2023/02/02 05:00:38;;;;;;;1.30;1.20;;;5.80;99.90;;;;;;5004532;28;20468;-81
2023/02/02 05:03:08;;;;;;;2.57;1.50;;;5.80;99.90;;;;;;5003674;28;21245;-82
2023/02/02 05:05:36;;;;;;;1.60;1.50;;;5.90;1.00;;;;;;5004750;28;20549;-83
2023/02/02 05:08:10;;;;;;;1.60;1.50;;;5.80;99.90;;;;;;5005793;28;20885;-83
2023/02/02 05:10:40;;;;;;;3.15;1.60;;;5.90;99.90;;;;;;5001692;28;20474;-83
2023/02/02 05:13:09;;;;;;;1.83;1.60;;;5.90;99.90;;;;;;5009484;28;20304;-81
2023/02/02 05:15:37;;;;;;;2.10;1.50;;;5.90;99.90;;;;;;5006108;28;20461;-83
2023/02/02 05:18:07;;;;;;;2.00;1.33;;;5.90;99.90;;;;;;5007754;28;20245;-82
2023/02/02 05:20:38;;;;;;;2.23;1.50;;;5.90;94.60;;;;;;5010812;28;20536;-82
2023/02/02 05:23:07;;;;;;;1.93;1.60;;;6.00;99.90;;;;;;5000497;28;20527;-82
2023/02/02 05:25:35;;;;;;;2.17;1.50;;;6.00;1.00;;;;;;5004185;28;20449;-79
2023/02/02 05:28:03;;;;;;;2.30;2.10;;;6.10;99.90;;;;;;4998103;28;20498;-79
2023/02/02 05:30:32;;;;;;;3.55;1.88;;;6.20;99.90;;;;;;5004243;28;20485;-80
2023/02/02 05:33:04;;;;;;;4.23;1.90;;;6.20;99.90;;;;;;5000298;28;20647;-81
2023/02/02 05:35:34;;;;;;;3.40;1.40;;;6.30;99.90;;;;;;5002326;28;20495;-84
2023/02/02 05:38:02;;;;;;;2.83;1.50;;;6.30;99.90;;;;;;5015793;28;20481;-84
2023/02/02 05:40:31;;;;;;;1.73;1.63;;;6.10;99.90;;;;;;5014683;28;20199;-85
2023/02/02 05:42:59;;;;;;;2.83;1.40;;;6.20;99.90;;;;;;5011952;28;20462;-84
2023/02/02 05:45:27;;;;;;;1.50;1.40;;;6.30;1.00;;;;;;5017824;28;20469;-85
2023/02/02 05:47:55;;;;;;;3.67;1.47;;;6.30;1.00;;;;;;5018675;28;20473;-84
2023/02/02 05:50:24;;;;;;;1.70;1.60;;;6.20;99.90;;;;;;5012215;28;20536;-84
2023/02/02 05:52:54;;;;;;;1.90;1.80;;;6.30;1.00;;;;;;5009550;28;20474;-84
2023/02/02 05:55:22;;;;;;;1.70;1.60;;;6.30;99.90;;;;;;5019511;28;20549;-82
2023/02/02 05:57:50;;;;;;;1.83;1.73;;;6.20;1.00;;;;;;5018475;28;20484;-83
2023/02/02 06:00:20;;;;;;;2.30;1.60;;;6.20;1.00;;;;;;5019582;28;20485;-85
2023/02/02 06:02:48;;;;;;;4.10;1.60;;;6.20;1.00;;;;;;5016044;28;20470;-84
2023/02/02 06:05:16;;;;;;;3.10;1.60;;;6.20;1.00;;;;;;5018771;28;20563;-83
2023/02/02 06:07:44;;;;;;;2.10;1.77;;;6.30;1.00;;;;;;5009673;28;20551;-83
2023/02/02 06:10:14;;;;;;;3.30;1.50;;;6.30;1.00;;;;;;5006062;28;20461;-82
2023/02/02 06:12:44;;;;;;;2.23;2.10;;;6.30;1.00;;;;;;5002575;28;20460;-83
2023/02/02 06:15:12;;;;;;;5.37;2.43;;;6.20;1.00;;;;;;5004953;28;20458;-83
2023/02/02 06:17:40;;;;;;;3.00;1.70;;;6.30;1.00;;;;;;5000310;28;20480;-84
2023/02/02 06:20:09;;;;;;;2.70;2.50;;;6.30;1.00;;;;;;5001295;28;20470;-82
2023/02/02 06:22:37;;;;;;;9.17;4.53;;;6.30;93.60;;;;;;5001766;28;20449;-83
2023/02/02 06:25:07;;;;;;;4.17;2.20;;;6.30;24.30;;;;;;5003538;28;20528;-83
2023/02/02 06:27:36;;;;;;;1.80;1.70;;;6.30;99.90;;;;;;4996862;28;20470;-82
2023/02/02 06:30:06;;;;;;;3.37;1.60;;;6.30;99.90;;;;;;5002272;28;21018;-82
2023/02/02 06:32:34;;;;;;;1.40;1.30;;;6.30;1.00;;;;;;5000647;28;20510;-79
2023/02/02 06:35:02;;;;;;;2.17;1.60;;;6.30;99.90;;;;;;4999145;28;20461;-83
2023/02/02 06:37:30;;;;;;;2.23;2.03;;;6.30;1.00;;;;;;5002540;28;20481;-83
2023/02/02 06:39:58;;;;;;;1.60;1.50;;;6.30;99.90;;;;;;5002523;28;20454;-83
2023/02/02 06:42:27;;;;;;;4.60;1.67;;;6.20;1.00;;;;;;4999511;28;20541;-83
2023/02/02 06:44:56;;;;;;;2.70;2.20;;;6.30;1.00;;;;;;4997600;28;20463;-81
2023/02/02 06:47:24;;;;;;;2.40;1.60;;;6.20;99.90;;;;;;5004529;28;20481;-82
2023/02/02 06:49:53;;;;;;;3.73;1.50;;;6.20;99.90;;;;;;5002122;28;20972;-82
2023/02/02 06:52:22;;;;;;;1.90;1.80;;;6.20;99.90;;;;;;5009647;28;20473;-82
2023/02/02 06:54:50;;;;;;;2.90;1.70;;;6.20;99.90;;;;;;5001117;28;20466;-82
2023/02/02 06:57:18;;;;;;;3.73;1.70;;;6.10;1.00;;;;;;5000981;28;20469;-82
2023/02/02 06:59:47;;;;;;;2.00;1.73;;;6.10;99.90;;;;;;5000340;28;20449;-82
2023/02/02 07:02:16;;;;;;;2.10;1.50;;;6.10;1.00;;;;;;5007337;28;20466;-82
2023/02/02 07:04:44;;;;;;;2.70;1.90;;;6.10;1.00;;;;;;5001728;28;20463;-82
2023/02/02 07:07:12;;;;;;;2.60;1.50;;;6.10;99.90;;;;;;5010314;28;20874;-82
2023/02/02 07:09:40;;;;;;;1.50;1.40;;;6.00;99.90;;;;;;5012002;28;20477;-82
2023/02/02 07:12:08;;;;;;;3.60;2.00;;;6.00;1.00;;;;;;5007904;28;20461;-82
2023/02/02 07:14:37;;;;;;;2.70;1.50;;;6.10;1.00;;;;;;5007679;28;20835;-82
2023/02/02 07:17:05;;;;;;;3.07;1.77;;;6.00;99.90;;;;;;5010907;28;20540;-83
2023/02/02 07:19:35;;;;;;;3.90;1.77;;;6.10;50.80;;;;;;5012370;28;20461;-83
2023/02/02 07:22:03;;;;;;;2.20;1.80;;;6.00;1.00;;;;;;5010212;28;20238;-83
2023/02/02 07:24:31;;;;;;;2.80;1.80;;;6.10;1.00;;;;;;5006699;28;20473;-83
2023/02/02 07:26:59;;;;;;;2.63;1.80;;;6.10;1.00;;;;;;5007057;28;20230;-82
2023/02/02 07:29:28;;;;;;;3.43;1.90;;;6.10;1.00;;;;;;5011125;28;20482;-82
2023/02/02 07:31:56;;;;;;;11.20;2.17;;;6.20;99.90;;;;;;5011498;28;20459;-82
2023/02/02 07:34:24;;;;;;;2.20;2.00;;;6.20;1.00;;;;;;5007025;28;20481;-83
2023/02/02 07:36:54;;;;;;;2.43;1.87;;;6.30;1.00;;;;;;5001030;28;20461;-82
2023/02/02 07:39:22;;;;;;;6.27;1.90;;;6.30;99.90;;;;;;5000703;28;20462;-82
2023/02/02 07:41:50;;;;;;;2.60;2.10;;;6.30;1.00;;;;;;4998081;28;20524;-81
2023/02/02 07:44:18;;;;;;;2.00;1.90;;;6.30;1.00;;;;;;5001839;28;20508;-82
2023/02/02 07:46:47;;;;;;;2.07;1.93;;;6.30;1.00;;;;;;5005004;28;20462;-82
2023/02/02 07:49:17;;;;;;;2.30;2.20;;;6.30;1.00;;;;;;5005176;28;20465;-82
2023/02/02 07:51:48;;;;;;;3.10;2.00;;;6.30;99.90;;;;;;5002234;28;20443;-83
2023/02/02 07:54:17;;;;;;;6.07;2.60;;;6.40;99.90;;;;;;4996869;28;20452;-82
2023/02/02 07:56:45;;;;;;;2.17;2.07;;;6.40;99.90;;;;;;4998198;28;20484;-83
2023/02/02 07:59:14;;;;;;;4.23;2.07;;;6.40;1.00;;;;;;5000714;28;20454;-82
2023/02/02 08:01:42;;;;;;;3.00;2.10;;;6.40;99.90;;;;;;4997320;28;20553;-83
2023/02/02 08:04:11;;;;;;;4.00;2.30;;;6.40;1.00;;;;;;4999524;28;20453;-82
2023/02/02 08:06:40;;;;;;;6.03;2.70;;;6.40;27.70;;;;;;4994936;28;20483;-83
2023/02/02 08:09:09;;;;;;;2.10;2.00;;;6.40;1.00;;;;;;5003133;28;20536;-84
2023/02/02 08:11:39;;;;;;;4.13;2.70;;;6.30;1.00;;;;;;4999869;28;20842;-83
2023/02/02 08:14:07;;;;;;;5.13;1.90;;;6.30;99.90;;;;;;5002582;28;20852;-83
2023/02/02 08:16:35;;;;;;;3.73;2.53;;;6.20;1.00;;;;;;5008902;28;20473;-84
2023/02/02 08:19:04;;;;;;;3.92;2.13;;;6.20;37.60;;;;;;5008211;28;20450;-83
2023/02/02 08:21:33;;;;;;;2.33;2.00;;;6.20;1.00;;;;;;5005266;28;20199;-84
2023/02/02 08:24:03;;;;;;;4.73;2.33;;;6.20;95.70;;;;;;5001944;28;20482;-83
2023/02/02 08:26:31;;;;;;;4.53;2.00;;;6.30;99.90;;;;;;5002276;28;21313;-83
2023/02/02 08:29:03;;;;;;;2.03;1.80;;;6.30;99.90;;;;;;5006466;28;20457;-83
2023/02/02 08:31:34;;;;;;;3.13;2.00;;;6.30;1.00;;;;;;5004955;28;20541;-83
2023/02/02 08:34:03;;;;;;;1.93;1.83;;;6.30;1.00;;;;;;5004379;28;20865;-84
2023/02/02 08:36:34;;;;;;;3.37;3.10;;;6.40;99.90;;;;;;5006999;28;20466;-83
2023/02/02 08:39:03;;;;;;;2.07;1.97;;;6.50;28.80;;;;;;4997104;28;20519;-83
2023/02/02 08:41:32;;;;;;;2.10;1.90;;;6.40;92.80;;;;;;5006187;28;20441;-83
2023/02/02 08:44:04;;;;;;;2.80;2.20;;;6.40;99.90;;;;;;4998826;28;20519;-83
2023/02/02 08:46:33;;;;;;;3.73;2.30;;;6.50;1.00;;;;;;4993345;28;20473;-84
2023/02/02 08:49:01;;;;;;;7.10;2.40;;;6.50;1.00;;;;;;4993182;28;20481;-83
2023/02/02 08:51:30;;;;;;;5.13;2.63;;;6.40;1.00;;;;;;4993316;28;21251;-82
2023/02/02 08:53:58;;;;;;;3.23;2.13;;;6.50;1.00;;;;;;4993160;28;20521;-83
2023/02/02 08:56:26;;;;;;;2.07;1.97;;;6.50;99.90;;;;;;4999004;28;20466;-83
2023/02/02 08:58:56;;;;;;;4.57;2.23;;;6.50;99.90;;;;;;5003664;28;20481;-83
2023/02/02 09:01:28;;;;;;;2.90;1.80;;;6.60;99.90;;;;;;5009870;28;20455;-84
2023/02/02 09:03:58;;;;;;;5.50;2.90;;;6.60;99.90;;;;;;5003651;28;20969;-83
2023/02/02 09:06:30;;;;;;;3.37;1.90;;;6.70;1.00;;;;;;5004481;28;20462;-83
2023/02/02 09:08:59;;;;;;;2.50;2.33;;;6.70;1.00;;;;;;5006236;28;20457;-83
2023/02/02 09:11:28;;;;;;;2.80;2.17;;;6.60;99.90;;;;;;5006233;28;20477;-84
2023/02/02 09:13:58;;;;;;;4.23;2.73;;;6.60;34.90;;;;;;5002378;28;20464;-84
2023/02/02 09:16:28;;;;;;;2.87;2.67;;;6.60;99.90;;;;;;5004984;28;20559;-83
2023/02/02 09:18:57;;;;;;;3.07;2.20;;;6.60;99.90;;;;;;5007682;28;20508;-83
2023/02/02 09:21:26;;;;;;;3.10;2.30;;;6.50;99.90;;;;;;5005733;28;20449;-83
2023/02/02 09:23:55;;;;;;;7.83;2.07;;;6.60;49.30;;;;;;5011348;28;20457;-83
2023/02/02 09:26:24;;;;;;;3.70;2.27;;;6.60;75.50;;;;;;5006587;28;20461;-84
2023/02/02 09:28:55;;;;;;;7.93;2.90;;;6.60;1.00;;;;;;5006310;28;20561;-83
2023/02/02 09:31:25;;;;;;;2.33;2.13;;;6.60;34.30;;;;;;5004116;28;20477;-83
2023/02/02 09:33:56;;;;;;;8.33;2.50;;;6.60;1.00;;;;;;5007747;28;20454;-84
2023/02/02 09:36:26;;;;;;;2.73;2.50;;;6.60;99.90;;;;;;5007056;28;20495;-83
2023/02/02 09:38:54;;;;;;;3.80;2.83;;;6.70;99.90;;;;;;5000714;28;20473;-83
2023/02/02 09:42:04;;;;;;;3.17;2.20;;;6.70;99.90;;;;;;5000823;28;20562;-83
2023/02/02 09:44:54;;;;;;;3.73;2.20;;;6.70;94.10;;;;;;4991529;28;20466;-83
2023/02/02 09:47:29;;;;;;;8.97;2.53;;;6.80;99.90;;;;;;4993585;28;21028;-83
2023/02/02 09:50:03;;;;;;;2.80;2.13;;;6.70;99.90;;;;;;5000162;28;20448;-83
2023/02/02 09:52:38;;;;;;;2.60;2.10;;;6.70;99.90;;;;;;5003487;28;20887;-83
2023/02/02 09:55:13;;;;;;;3.57;2.30;;;6.70;99.90;;;;;;4997264;28;20454;-83
2023/02/02 09:57:46;;;;;;;6.03;3.10;;;6.80;99.90;;;;;;4995746;28;21004;-84
2023/02/02 10:00:26;;;;;;;2.83;2.07;;;6.70;73.40;;;;;;5009643;28;21200;-83
2023/02/02 10:03:00;;;;;;;3.20;2.00;;;6.80;1.00;;;;;;5005521;28;20457;-83
2023/02/02 10:05:44;;;;;;;2.70;2.50;;;6.70;1.00;;;;;;5006482;28;20465;-84
2023/02/02 10:08:20;;;;;;;5.20;2.00;;;6.80;65.40;;;;;;5005241;28;20481;-83
2023/02/02 10:11:05;;;;;;;2.30;2.10;;;6.70;1.00;;;;;;5005359;28;20478;-85
2023/02/02 10:13:37;;;;;;;2.30;2.10;;;6.70;1.00;;;;;;5003782;28;20453;-85
2023/02/02 10:16:13;;;;;;;2.47;1.87;;;6.70;99.90;;;;;;5007456;28;20461;-83
2023/02/02 10:18:47;;;;;;;4.63;2.10;;;6.70;99.90;;;;;;5008128;28;21012;-83
2023/02/02 10:21:25;;;;;;;2.70;2.07;;;6.80;99.90;;;;;;5006511;28;20507;-83
2023/02/02 10:23:56;;;;;;;3.03;1.97;;;6.80;99.90;;;;;;5004341;28;20478;-83
2023/02/02 10:26:31;;;;;;;3.90;2.73;;;6.90;99.90;;;;;;5003493;28;20465;-83
2023/02/02 10:29:16;;;;;;;3.03;2.07;;;6.70;1.00;;;;;;5000379;28;20474;-83
2023/02/02 10:31:53;;;;;;;3.30;2.47;;;6.60;1.00;;;;;;5007436;28;20481;-83
2023/02/02 10:34:27;;;;;;;2.90;2.70;;;6.50;99.90;;;;;;5005837;28;20441;-83
2023/02/02 10:37:04;;;;;;;2.53;2.10;;;6.50;95.70;;;;;;5003367;28;20458;-83
2023/02/02 10:39:45;;;;;;;5.07;2.30;;;6.60;77.90;;;;;;5007664;28;20453;-83
2023/02/02 10:42:23;;;;;;;2.80;2.17;;;6.60;2.50;;;;;;5003918;28;20538;-83
2023/02/02 10:44:54;;;;;;;3.33;2.43;;;6.50;99.90;;;;;;5003158;28;20459;-83
2023/02/02 10:47:27;;;;;;;2.07;1.97;;;6.40;99.90;;;;;;5005939;28;20478;-83
2023/02/02 10:50:07;;;;;;;2.03;1.93;;;6.40;99.90;;;;;;5008002;28;20459;-83
2023/02/02 10:52:37;;;;;;;4.77;2.20;;;6.50;99.90;;;;;;5007185;28;20481;-83
2023/02/02 10:55:15;;;;;;;2.80;2.30;;;6.40;99.90;;;;;;5007851;28;20520;-83
2023/02/02 10:57:51;;;;;;;3.20;3.00;;;6.50;99.90;;;;;;5004764;28;20478;-81
2023/02/02 11:00:23;;;;;;;4.90;2.70;;;6.40;99.90;;;;;;5002917;28;20469;-83
2023/02/02 11:03:03;;;;;;;3.47;2.40;;;6.50;1.00;;;;;;5005890;28;20465;-82
2023/02/02 11:08:21;;;;;;;3.93;2.50;;;6.50;1.00;;;;;;5007302;28;20536;-83
2023/02/02 11:10:54;;;;;;;6.27;3.03;;;6.50;99.90;;;;;;5002746;28;20554;-84
2023/02/02 11:13:29;;;;;;;4.20;2.30;;;6.40;1.00;;;;;;5001795;28;20448;-83
2023/02/02 11:16:22;;;;;;;2.33;2.13;;;6.50;99.90;;;;;;5002507;28;20492;-84
2023/02/02 11:18:53;;;;;;;2.70;2.37;;;6.50;99.90;;;;;;5010168;28;20481;-83
2023/02/02 11:21:25;;;;;;;4.00;2.70;;;6.60;99.90;;;;;;5003814;28;20464;-83
2023/02/02 11:23:58;;;;;;;2.47;2.27;;;6.60;1.00;;;;;;5002435;28;20550;-78
2023/02/02 11:26:41;;;;;;;2.73;2.40;;;6.60;1.00;;;;;;4998834;28;20483;-77
2023/02/02 11:29:14;;;;;;;4.30;2.30;;;6.70;99.90;;;;;;4998684;28;20448;-83
2023/02/02 11:31:44;;;;;;;3.77;2.27;;;6.80;1.00;;;;;;5004283;28;20226;-85
2023/02/02 11:34:21;;;;;;;2.70;2.50;;;6.80;99.90;;;;;;5009961;28;20485;-83
2023/02/02 11:37:02;;;;;;;2.73;2.50;;;6.80;1.00;;;;;;5011201;28;20478;-83
2023/02/02 11:39:31;;;;;;;8.33;3.53;;;6.90;99.90;;;;;;5014011;28;20534;-83
2023/02/02 11:42:07;;;;;;;3.33;2.30;;;6.80;1.00;;;;;;5004438;28;20442;-83
2023/02/02 11:44:38;;;;;;;3.07;2.83;;;6.90;1.00;;;;;;5004860;28;20463;-83
2023/02/02 11:47:07;;;;;;;9.60;2.80;;;6.80;1.00;;;;;;5011158;28;20469;-83
2023/02/02 11:49:42;;;;;;;2.40;2.17;;;6.80;1.00;;;;;;5013276;28;20450;-83
2023/02/02 11:52:18;;;;;;;3.80;3.50;;;6.80;99.90;;;;;;5001405;28;20568;-83
2023/02/02 11:54:49;;;;;;;4.33;2.50;;;6.90;99.90;;;;;;4996753;28;20505;-83
2023/02/02 11:57:20;;;;;;;3.90;2.20;;;6.90;99.90;;;;;;5007073;28;20486;-84
2023/02/02 11:59:49;;;;;;;2.80;2.50;;;6.90;1.00;;;;;;5014327;28;20967;-83
2023/02/02 12:02:27;;;;;;;3.30;2.63;;;6.90;1.00;;;;;;5007765;28;20450;-84
2023/02/02 12:05:11;;;;;;;5.40;2.73;;;6.90;99.90;;;;;;4996047;28;20985;-83
2023/02/02 12:07:41;;;;;;;2.77;2.53;;;6.90;1.00;;;;;;4996722;28;20483;-83
2023/02/02 12:10:17;;;;;;;4.00;2.17;;;7.00;1.00;;;;;;5003335;28;20485;-83
2023/02/02 12:12:57;;;;;;;2.70;2.50;;;7.00;90.10;;;;;;5002524;28;20481;-83
2023/02/02 12:15:36;;;;;;;2.40;2.20;;;7.00;1.00;;;;;;5001860;28;20471;-83
2023/02/02 12:18:20;;;;;;;5.90;2.60;;;7.00;1.00;;;;;;4996036;28;20497;-83
2023/02/02 12:20:55;;;;;;;2.10;2.00;;;7.00;99.90;;;;;;4997925;28;20442;-83
2023/02/02 12:23:33;;;;;;;2.23;2.03;;;7.00;1.00;;;;;;4995622;28;20455;-83
2023/02/02 12:26:21;;;;;;;4.83;2.20;;;7.00;1.00;;;;;;4993711;28;20461;-83
2023/02/02 12:29:03;;;;;;;3.83;2.77;;;7.00;99.90;;;;;;5001435;28;20915;-83
2023/02/02 12:31:43;;;;;;;2.00;1.60;;;7.10;1.00;;;;;;5000649;28;20472;-84
2023/02/02 12:34:21;;;;;;;2.33;2.13;;;7.00;99.90;;;;;;5002687;28;20815;-83
2023/02/02 12:36:59;;;;;;;2.70;1.80;;;7.10;99.90;;;;;;5001483;28;20507;-83
2023/02/02 12:39:34;;;;;;;3.23;2.17;;;7.00;99.90;;;;;;5001960;28;20841;-83
2023/02/02 12:42:19;;;;;;;4.93;2.53;;;7.00;99.90;;;;;;5000442;28;20453;-84
2023/02/02 12:45:02;;;;;;;4.50;2.43;;;7.00;1.00;;;;;;5000066;28;20466;-83
2023/02/02 12:47:36;;;;;;;3.60;2.00;;;7.00;1.00;;;;;;5001821;28;20471;-83
2023/02/02 12:50:19;;;;;;;3.00;1.93;;;7.00;1.00;;;;;;5001848;28;20870;-84
2023/02/02 12:53:05;;;;;;;4.10;1.90;;;6.90;1.00;;;;;;4999922;28;20482;-84
2023/02/02 12:55:42;;;;;;;3.10;1.90;;;6.80;1.00;;;;;;5005785;28;20500;-83
2023/02/02 12:58:24;;;;;;;2.20;1.97;;;6.90;99.90;;;;;;4998272;28;20481;-83
2023/02/02 13:01:09;;;;;;;3.70;2.17;;;6.90;29.40;;;;;;5014325;28;20457;-83
2023/02/02 13:03:59;;;;;;;5.03;2.20;;;6.90;1.00;;;;;;4993635;28;20472;-81
2023/02/02 13:07:06;;;;;;;3.50;2.20;;;6.90;99.90;;;;;;5003416;28;20474;-84
2023/02/02 13:09:42;;;;;;;5.07;2.30;;;6.90;1.00;;;;;;4975977;28;20469;-83
2023/02/02 13:12:13;;;;;;;2.27;2.07;;;6.90;1.00;;;;;;5001645;28;20528;-84
2023/02/02 13:14:46;;;;;;;2.00;1.90;;;6.80;99.90;;;;;;4997696;28;21047;-83
2023/02/02 13:17:21;;;;;;;3.83;2.70;;;6.80;1.00;;;;;;5001616;28;20483;-84
2023/02/02 13:19:51;;;;;;;3.53;2.70;;;6.80;99.90;;;;;;5003807;28;20438;-84
2023/02/02 13:22:28;;;;;;;2.70;2.53;;;6.80;99.90;;;;;;5005936;28;20471;-83
2023/02/02 13:25:00;;;;;;;3.13;2.93;;;6.90;1.00;;;;;;5003709;28;20464;-84
2023/02/02 13:27:30;;;;;;;2.53;2.33;;;6.90;99.90;;;;;;4996815;28;20479;-83
2023/02/02 13:30:04;;;;;;;2.20;2.10;;;6.90;1.00;;;;;;4996108;28;20516;-83
2023/02/02 13:32:36;;;;;;;2.20;2.10;;;6.90;99.90;;;;;;5001781;28;20481;-84
2023/02/02 13:35:14;;;;;;;2.60;2.40;;;6.90;1.00;;;;;;4996161;28;20524;-83
2023/02/02 13:37:48;;;;;;;4.60;3.00;;;6.90;99.90;;;;;;4992386;28;21008;-84
2023/02/02 13:40:25;;;;;;;2.07;1.90;;;6.90;1.00;;;;;;4994620;28;20461;-82
2023/02/02 13:42:59;;;;;;;4.00;2.50;;;6.90;99.90;;;;;;4991665;28;20537;-84